Time;durP1;ratioP1;P1;durP2;ratioP2;P2;SDS_P1;SDS_P2;PMS_P1;PMS_P2;Temp;Humidity;BMP_temperature;BMP_pressure;BME280_temperature;BME280_humidity;BME280_pressure;Samples;Min_cycle;Max_cycle;Signal;HPM_P1;HPM_P2
2022/01/26 00:06:57;;;;;;;16.87;10.33;;;;;;;-2.32;45.72;100438.44;5070585;28;20252;-55
2022/01/26 00:09:26;;;;;;;15.10;10.60;;;;;;;-2.28;45.57;100436.28;5070428;28;20199;-55
2022/01/26 00:11:56;;;;;;;16.53;10.83;;;;;;;-2.31;45.35;100443.59;5070235;28;20213;-55
2022/01/26 00:14:23;;;;;;;18.43;11.00;;;;;;;-2.25;45.58;100449.09;5070425;28;20665;-55
2022/01/26 00:16:50;;;;;;;17.10;10.67;;;;;;;-2.24;44.88;100445.84;5070556;28;20676;-58
2022/01/26 00:19:23;;;;;;;15.77;11.13;;;;;;;-2.19;44.95;100442.06;5070478;28;20192;-58
2022/01/26 00:21:52;;;;;;;18.90;11.70;;;;;;;-2.21;45.26;100441.06;5069869;28;20222;-59
2022/01/26 00:29:48;;;;;;;15.87;10.77;;;;;;;-2.22;45.16;100439.28;5070198;28;20186;-58
2022/01/26 00:40:34;;;;;;;15.23;9.57;;;;;;;-2.01;43.69;100425.06;5070563;28;20190;-55
2022/01/26 00:43:12;;;;;;;15.60;10.03;;;;;;;-2.10;43.15;100404.16;5070510;28;20194;-55
2022/01/26 00:45:39;;;;;;;16.50;9.57;;;;;;;-1.98;43.37;100416.06;5069111;28;20271;-55
2022/01/26 00:48:09;;;;;;;12.57;8.60;;;;;;;-2.02;43.68;100424.16;5070245;28;20192;-54
2022/01/26 00:50:37;;;;;;;14.77;9.87;;;;;;;-2.07;44.03;100420.41;5070271;28;20199;-54
2022/01/26 00:53:04;;;;;;;12.43;8.90;;;;;;;-2.06;44.07;100421.28;5070349;28;20306;-54
2022/01/26 00:55:32;;;;;;;12.53;10.00;;;;;;;-2.11;44.39;100402.38;5069978;28;20187;-54
2022/01/26 00:57:59;;;;;;;16.30;9.90;;;;;;;-2.08;43.93;100401.00;5070122;28;20196;-57
2022/01/26 01:00:29;;;;;;;15.43;10.77;;;;;;;-2.13;44.23;100407.31;5070202;28;20190;-58
2022/01/26 01:02:57;;;;;;;26.20;10.00;;;;;;;-2.16;44.24;100412.09;5070017;28;20292;-57
2022/01/26 01:05:29;;;;;;;14.40;10.13;;;;;;;-2.15;44.35;100413.88;5070104;28;20194;-58
2022/01/26 01:08:02;;;;;;;15.57;11.90;;;;;;;-2.07;44.38;100409.44;5069184;28;20487;-58
2022/01/26 01:10:29;;;;;;;15.70;10.43;;;;;;;-2.03;43.95;100402.25;5070254;28;20272;-58
2022/01/26 01:12:58;;;;;;;16.13;10.23;;;;;;;-1.98;43.58;100395.94;5070058;28;20226;-58
2022/01/26 01:15:28;;;;;;;17.43;10.00;;;;;;;-2.04;43.83;100399.63;5069988;28;20188;-58
2022/01/26 01:18:05;;;;;;;21.83;10.60;;;;;;;-1.98;43.79;100390.06;5069372;28;20195;-58
2022/01/26 01:20:50;;;;;;;14.97;9.63;;;;;;;-2.01;43.95;100390.69;5069939;28;20191;-58
2022/01/26 01:23:43;;;;;;;16.45;11.85;;;;;;;-2.00;43.29;100387.38;5068693;28;20468;-58
2022/01/26 01:29:08;;;;;;;15.10;10.43;;;;;;;-2.03;43.07;100387.16;5060876;28;20191;-58
2022/01/26 01:31:44;;;;;;;15.23;9.97;;;;;;;-2.12;43.47;100376.38;5069927;28;20254;-58
2022/01/26 01:34:15;;;;;;;13.33;9.87;;;;;;;-2.12;43.28;100371.34;5071957;28;20204;-59
2022/01/26 01:36:46;;;;;;;15.97;10.33;;;;;;;-2.13;42.95;100374.59;5073594;28;20233;-59
2022/01/26 01:39:13;;;;;;;14.50;9.83;;;;;;;-2.14;43.15;100371.97;5073519;28;20197;-58
2022/01/26 01:41:45;;;;;;;15.60;9.53;;;;;;;-2.18;42.79;100364.94;5073496;28;20196;-58
2022/01/26 01:44:13;;;;;;;15.57;9.17;;;;;;;-2.11;42.28;100360.50;5073479;28;20193;-58
2022/01/26 01:46:42;;;;;;;13.40;9.23;;;;;;;-2.01;42.27;100364.63;5073295;28;20286;-59
2022/01/26 01:49:11;;;;;;;13.67;9.20;;;;;;;-1.99;41.92;100360.59;5073289;28;20187;-60
2022/01/26 01:51:42;;;;;;;12.93;9.07;;;;;;;-1.95;41.73;100371.00;5073160;28;20308;-58
2022/01/26 01:54:14;;;;;;;14.40;9.37;;;;;;;-1.96;41.73;100361.72;5073167;28;20201;-58
2022/01/26 01:56:43;;;;;;;14.40;9.33;;;;;;;-1.92;41.69;100368.72;5073377;28;20202;-58
2022/01/26 01:59:10;;;;;;;13.07;9.20;;;;;;;-1.92;41.48;100365.31;5073361;28;20204;-58
2022/01/26 02:01:37;;;;;;;14.60;9.63;;;;;;;-1.85;41.45;100355.00;5073090;28;20196;-58
2022/01/26 02:04:07;;;;;;;15.13;9.37;;;;;;;-1.83;41.04;100354.34;5073360;28;20195;-58
2022/01/26 02:06:34;;;;;;;13.03;9.50;;;;;;;-1.76;40.72;100354.84;5073006;28;20198;-59
2022/01/26 02:09:01;;;;;;;15.10;8.87;;;;;;;-1.69;40.85;100360.47;5073244;28;20202;-59
2022/01/26 02:11:28;;;;;;;11.37;8.43;;;;;;;-1.94;41.05;100311.47;5072969;28;20194;-59
2022/01/26 02:14:01;;;;;;;14.40;10.50;;;;;;;-1.65;40.58;100352.41;5071803;28;20520;-58
2022/01/26 02:16:33;;;;;;;11.30;9.07;;;;;;;-1.59;40.29;100352.84;5072737;28;20203;-58
2022/01/26 02:49:46;;;;;;;12.90;9.03;;;;;;;-1.43;40.21;100324.69;5072312;28;20189;-55
2022/01/26 02:52:26;;;;;;;12.80;8.47;;;;;;;-1.47;40.42;100331.13;5072422;28;20327;-55
2022/01/26 02:55:14;;;;;;;11.40;7.87;;;;;;;-1.44;40.22;100321.28;5072176;28;20297;-56
2022/01/26 02:58:01;;;;;;;12.67;8.67;;;;;;;-1.42;40.69;100321.38;5072083;28;20208;-55
2022/01/26 03:00:36;;;;;;;13.63;8.80;;;;;;;-1.36;40.67;100315.19;5072009;28;20681;-56
2022/01/26 03:03:13;;;;;;;12.50;8.37;;;;;;;-1.32;40.50;100319.66;5072102;28;20195;-56
2022/01/26 03:05:47;;;;;;;13.13;8.63;;;;;;;-1.30;40.62;100317.28;5071940;28;20286;-54
2022/01/26 03:08:14;;;;;;;12.03;7.87;;;;;;;-1.30;41.40;100314.75;5071930;28;20199;-55
2022/01/26 03:10:48;;;;;;;11.03;7.93;;;;;;;-1.32;40.94;100306.22;5071853;28;20654;-56
2022/01/26 03:13:19;;;;;;;11.70;8.47;;;;;;;-1.29;41.71;100317.38;5071577;28;20649;-55
2022/01/26 03:15:51;;;;;;;11.50;8.97;;;;;;;-1.27;41.76;100315.00;5071696;28;20192;-56
2022/01/26 03:21:01;;;;;;;14.07;8.93;;;;;;;-1.24;41.56;100297.59;5058621;28;20195;-55
2022/01/26 03:29:11;;;;;;;13.33;9.40;;;;;;;-1.27;41.65;100289.78;5071572;28;20188;-56
2022/01/26 03:34:24;;;;;;;17.80;10.48;;;;;;;-1.14;40.81;100284.88;5071027;28;20448;-55
2022/01/26 03:36:55;;;;;;;12.17;8.73;;;;;;;-1.11;41.20;100275.03;5071392;28;20230;-55
2022/01/26 03:39:23;;;;;;;14.20;9.10;;;;;;;-1.14;41.15;100294.97;5071160;28;20555;-54
2022/01/26 03:41:57;;;;;;;11.93;9.33;;;;;;;-1.16;41.70;100288.94;5071147;28;20188;-54
2022/01/26 03:44:24;;;;;;;14.90;9.17;;;;;;;-1.13;41.52;100294.22;5071378;28;20204;-54
2022/01/26 03:46:51;;;;;;;12.90;9.13;;;;;;;-1.16;41.59;100285.53;5070967;28;20191;-54
2022/01/26 03:49:18;;;;;;;23.40;10.73;;;;;;;-1.23;42.15;100289.25;5071165;28;20202;-54
2022/01/26 03:51:45;;;;;;;23.77;10.13;;;;;;;-1.21;42.59;100282.69;5070983;28;20298;-55
2022/01/26 03:54:14;;;;;;;13.83;10.47;;;;;;;-1.22;42.05;100276.78;5070972;28;20204;-54
2022/01/26 03:56:41;;;;;;;26.47;11.93;;;;;;;-1.26;42.82;100281.44;5070839;28;20199;-54
2022/01/26 03:59:10;;;;;;;12.40;9.00;;;;;;;-1.26;43.35;100283.97;5070979;28;20195;-54
2022/01/26 04:01:38;;;;;;;15.93;9.80;;;;;;;-1.26;43.10;100274.78;5071038;28;20191;-54
2022/01/26 04:04:06;;;;;;;15.27;9.97;;;;;;;-1.47;43.45;100232.84;5070807;28;20680;-54
2022/01/26 04:06:33;;;;;;;16.17;9.80;;;;;;;-1.22;44.13;100281.81;5070686;28;20190;-54
2022/01/26 04:09:01;;;;;;;18.10;10.13;;;;;;;-1.20;43.29;100282.78;5070636;28;20202;-55
2022/01/26 04:11:35;;;;;;;18.40;9.77;;;;;;;-1.17;43.15;100284.66;5070967;28;20191;-55
2022/01/26 04:14:06;;;;;;;13.60;9.13;;;;;;;-1.13;42.75;100284.13;5070428;28;20219;-55
2022/01/26 04:16:35;;;;;;;12.97;8.83;;;;;;;-1.10;42.58;100276.81;5070533;28;20198;-55
2022/01/26 04:19:02;;;;;;;15.57;10.07;;;;;;;-1.14;42.10;100277.31;5070589;28;20215;-55
2022/01/26 04:21:45;;;;;;;15.37;9.33;;;;;;;-1.05;42.29;100272.97;5070537;28;20231;-55
2022/01/26 04:24:13;;;;;;;14.93;10.20;;;;;;;-1.12;42.22;100269.88;5070557;28;20661;-55
2022/01/26 04:26:46;;;;;;;13.70;9.30;;;;;;;-1.09;41.33;100253.31;5070529;28;20191;-55
2022/01/26 04:29:19;;;;;;;14.07;8.77;;;;;;;-0.99;41.61;100262.47;5070544;28;20289;-54
2022/01/26 04:31:48;;;;;;;12.87;8.37;;;;;;;-1.03;41.38;100271.44;5069503;28;20270;-58
2022/01/26 04:34:15;;;;;;;13.97;9.40;;;;;;;-1.03;41.36;100271.44;5070252;28;20813;-58
2022/01/26 04:36:48;;;;;;;12.13;8.77;;;;;;;-0.98;41.53;100265.09;5070612;28;20739;-59
2022/01/26 04:39:19;;;;;;;12.90;8.63;;;;;;;-1.05;41.48;100260.38;5063646;28;20187;-58
2022/01/26 04:41:51;;;;;;;11.60;8.43;;;;;;;-1.06;41.07;100277.88;5069022;28;20295;-59
2022/01/26 04:44:22;;;;;;;13.33;9.20;;;;;;;-1.05;42.16;100272.09;5069526;28;20658;-58
2022/01/26 04:46:51;;;;;;;13.37;9.40;;;;;;;-1.08;42.16;100270.22;5070560;28;20196;-58
2022/01/26 04:49:18;;;;;;;19.60;9.63;;;;;;;-1.01;41.86;100274.06;5070370;28;20202;-55
2022/01/26 04:51:45;;;;;;;14.27;9.77;;;;;;;-0.96;42.21;100271.09;5070222;28;20197;-58
2022/01/26 04:54:13;;;;;;;14.30;10.03;;;;;;;-1.01;42.14;100269.91;5070220;28;20754;-59
2022/01/26 04:56:40;;;;;;;12.87;8.63;;;;;;;-0.98;41.60;100272.66;5070333;28;20662;-59
2022/01/26 04:59:07;;;;;;;15.63;9.23;;;;;;;-1.05;41.64;100251.91;5069899;28;20193;-58
2022/01/26 05:01:34;;;;;;;11.93;8.87;;;;;;;-0.96;42.23;100255.97;5070020;28;20187;-58
2022/01/26 05:04:02;;;;;;;12.67;9.20;;;;;;;-1.15;41.67;100232.69;5070151;28;20222;-58
2022/01/26 05:06:29;;;;;;;13.07;9.17;;;;;;;-0.95;41.45;100257.75;5070076;28;20245;-58
2022/01/26 05:08:56;;;;;;;14.60;8.97;;;;;;;-0.96;41.37;100253.44;5072055;28;20597;-58
2022/01/26 05:11:31;;;;;;;11.77;8.43;;;;;;;-1.00;41.01;100265.75;5073885;28;20226;-58
2022/01/26 05:13:59;;;;;;;14.03;8.93;;;;;;;-1.08;41.93;100264.31;5073957;28;20219;-59
2022/01/26 05:16:26;;;;;;;13.43;8.40;;;;;;;-0.98;41.53;100277.69;5074077;28;20205;-58
2022/01/26 05:18:54;;;;;;;12.93;9.23;;;;;;;-1.02;42.10;100278.25;5073675;28;20194;-58
2022/01/26 05:21:23;;;;;;;16.67;9.77;;;;;;;-1.07;41.68;100254.31;5072417;28;20202;-59
2022/01/26 05:23:50;;;;;;;14.63;9.57;;;;;;;-1.02;41.87;100280.78;5073585;28;20287;-58
2022/01/26 05:26:17;;;;;;;12.80;8.70;;;;;;;-1.02;43.28;100269.81;5073398;28;20187;-58
2022/01/26 05:28:44;;;;;;;20.10;10.10;;;;;;;-1.03;42.73;100273.97;5073496;28;20195;-58
2022/01/26 05:31:11;;;;;;;15.73;10.00;;;;;;;-1.03;42.79;100263.00;5073518;28;20203;-58
2022/01/26 05:33:39;;;;;;;18.85;12.13;;;;;;;-1.01;43.95;100264.84;5072394;28;20947;-58
2022/01/26 05:36:06;;;;;;;16.63;11.10;;;;;;;-0.91;43.94;100259.75;5073334;28;20199;-58
2022/01/26 05:38:35;;;;;;;16.13;10.87;;;;;;;-0.89;43.48;100267.41;5073175;28;20564;-58
2022/01/26 05:41:04;;;;;;;13.00;8.90;;;;;;;-0.81;42.84;100268.84;5073171;28;20196;-58
2022/01/26 05:43:31;;;;;;;14.53;9.47;;;;;;;-0.89;42.60;100252.28;5073579;28;20187;-59
2022/01/26 05:46:03;;;;;;;14.77;8.90;;;;;;;-0.86;42.80;100260.06;5073368;28;20183;-58
2022/01/26 05:48:30;;;;;;;25.33;10.63;;;;;;;-0.88;43.14;100270.03;5073149;28;20195;-58
2022/01/26 05:51:05;;;;;;;13.30;9.40;;;;;;;-0.96;43.67;100266.06;5072811;28;20200;-58
2022/01/26 05:53:32;;;;;;;14.37;9.03;;;;;;;-0.93;43.24;100258.72;5072775;28;20211;-58
2022/01/26 05:56:00;;;;;;;14.57;9.30;;;;;;;-0.91;42.87;100264.78;5073119;28;20217;-58
2022/01/26 05:58:28;;;;;;;15.87;10.20;;;;;;;-0.96;43.18;100271.09;5072910;28;20196;-58
2022/01/26 06:00:57;;;;;;;16.37;9.60;;;;;;;-0.98;43.25;100272.66;5072935;28;20195;-58
2022/01/26 06:03:24;;;;;;;14.13;10.03;;;;;;;-1.01;43.22;100284.13;5072817;28;20234;-58
2022/01/26 06:05:53;;;;;;;12.33;9.00;;;;;;;-1.02;43.39;100268.16;5072699;28;20191;-58
2022/01/26 06:08:20;;;;;;;16.47;10.57;;;;;;;-0.92;43.58;100277.25;5072505;28;20616;-59
2022/01/26 06:10:47;;;;;;;16.80;11.20;;;;;;;-0.93;44.02;100275.50;5072317;28;20282;-59
2022/01/26 06:13:15;;;;;;;13.93;9.80;;;;;;;-0.86;43.60;100282.75;5072748;28;20219;-58
2022/01/26 06:15:43;;;;;;;15.10;10.50;;;;;;;-0.76;43.54;100281.03;5072404;28;20198;-55
2022/01/26 06:18:10;;;;;;;17.93;10.90;;;;;;;-0.70;43.24;100293.19;5072775;28;20195;-55
2022/01/26 06:20:37;;;;;;;15.03;10.93;;;;;;;-0.68;43.43;100282.44;5071392;28;20223;-54
2022/01/26 06:23:05;;;;;;;22.63;10.80;;;;;;;-0.70;43.03;100281.47;5072340;28;20401;-54
2022/01/26 06:25:33;;;;;;;15.67;11.10;;;;;;;-0.53;42.80;100284.34;5072435;28;20184;-55
2022/01/26 06:28:01;;;;;;;17.50;10.10;;;;;;;-0.43;42.72;100289.25;5072586;28;20203;-56
2022/01/26 06:30:29;;;;;;;14.80;10.73;;;;;;;-0.32;42.25;100291.78;5072334;28;20282;-56
2022/01/26 06:32:56;;;;;;;17.33;11.60;;;;;;;-0.30;42.78;100285.19;5072395;28;20227;-55
2022/01/26 06:35:24;;;;;;;15.57;11.27;;;;;;;-0.18;42.57;100285.19;5072332;28;20191;-54
2022/01/26 06:37:50;;;;;;;16.50;10.27;;;;;;;-0.07;42.40;100287.72;5071795;28;20199;-54
2022/01/26 06:40:17;;;;;;;15.23;10.40;;;;;;;0.01;41.57;100285.72;5071536;28;20524;-54
2022/01/26 06:42:53;;;;;;;13.07;8.73;;;;;;;0.11;41.36;100292.31;5071792;28;20187;-54
2022/01/26 06:45:23;;;;;;;15.00;9.20;;;;;;;0.08;41.60;100285.38;5072322;28;20198;-55
2022/01/26 06:48:14;;;;;;;14.17;9.30;;;;;;;0.12;41.48;100289.88;5072155;28;20191;-55
2022/01/26 06:50:41;;;;;;;15.30;10.17;;;;;;;0.25;41.76;100292.47;5071851;28;20188;-54
2022/01/26 06:53:08;;;;;;;18.00;10.07;;;;;;;0.37;41.30;100293.31;5071354;28;20219;-56
2022/01/26 06:55:36;;;;;;;18.07;11.20;;;;;;;0.50;41.00;100293.38;5070654;28;20581;-56
2022/01/26 06:58:04;;;;;;;17.17;10.03;;;;;;;0.57;41.07;100298.09;5071715;28;20286;-54
2022/01/26 07:00:32;;;;;;;11.93;9.30;;;;;;;0.66;40.94;100295.28;5069914;28;20192;-57
2022/01/26 07:03:00;;;;;;;13.43;9.50;;;;;;;0.70;41.13;100296.38;5066588;28;20191;-57
2022/01/26 07:05:27;;;;;;;12.67;9.30;;;;;;;0.72;42.04;100310.00;5071258;28;20191;-58
2022/01/26 07:07:54;;;;;;;16.50;10.23;;;;;;;0.73;42.36;100306.72;5071418;28;20207;-59
2022/01/26 07:10:21;;;;;;;15.57;10.50;;;;;;;0.76;42.07;100305.28;5070398;28;20205;-58
2022/01/26 07:12:48;;;;;;;22.37;10.80;;;;;;;0.78;41.52;100300.31;5071107;28;20201;-58
2022/01/26 07:23:37;;;;;;;18.07;10.40;;;;;;;0.78;42.36;100295.25;5051449;28;20278;-59
2022/01/26 07:26:05;;;;;;;15.07;9.73;;;;;;;0.81;42.51;100295.44;5068540;28;20282;-59
2022/01/26 07:28:35;;;;;;;13.57;9.93;;;;;;;0.84;41.97;100291.47;5071126;28;20196;-59
2022/01/26 07:31:02;;;;;;;14.67;9.80;;;;;;;0.80;42.47;100278.50;5070698;28;20730;-60
2022/01/26 07:33:31;;;;;;;13.63;10.17;;;;;;;0.86;42.75;100291.56;5070946;28;20310;-59
2022/01/26 07:35:58;;;;;;;12.97;9.93;;;;;;;0.93;42.95;100297.16;5051184;28;20627;-59
2022/01/26 07:38:26;;;;;;;15.77;9.50;;;;;;;0.96;43.14;100299.88;5050701;28;20651;-59
2022/01/26 07:40:53;;;;;;;14.67;9.50;;;;;;;0.96;42.69;100282.16;5050902;28;20284;-58
2022/01/26 07:43:20;;;;;;;12.37;10.07;;;;;;;0.97;43.30;100286.47;5050692;28;20196;-59
2022/01/26 07:45:47;;;;;;;15.27;9.27;;;;;;;1.08;42.75;100288.03;5050747;28;20544;-59
2022/01/26 07:48:14;;;;;;;11.53;8.07;;;;;;;1.17;42.72;100293.72;5050908;28;20682;-58
2022/01/26 07:50:43;;;;;;;15.83;8.43;;;;;;;1.18;42.51;100292.06;5050944;28;20279;-59
2022/01/26 07:53:15;;;;;;;10.30;8.13;;;;;;;1.14;42.41;100287.56;5050743;28;20280;-59
2022/01/26 07:55:42;;;;;;;15.50;10.80;;;;;;;1.12;43.30;100291.66;5050473;28;20200;-60
2022/01/26 07:58:10;;;;;;;14.70;9.20;;;;;;;1.22;43.13;100288.06;5050586;28;20196;-58
2022/01/26 08:00:37;;;;;;;14.17;9.03;;;;;;;1.16;43.32;100283.47;5050722;28;20204;-58
2022/01/26 08:03:04;;;;;;;14.60;9.33;;;;;;;1.25;43.32;100299.28;5050453;28;20302;-59
2022/01/26 08:05:32;;;;;;;13.57;9.27;;;;;;;1.30;43.13;100291.97;5068680;28;20196;-58
2022/01/26 08:08:00;;;;;;;16.43;9.60;;;;;;;1.36;43.38;100290.72;5069496;28;20282;-59
2022/01/26 08:10:27;;;;;;;15.63;10.50;;;;;;;1.32;43.36;100285.38;5066395;28;20203;-60
2022/01/26 08:12:54;;;;;;;14.57;10.30;;;;;;;1.47;43.20;100283.81;5050797;28;20196;-59
2022/01/26 08:15:21;;;;;;;15.43;9.93;;;;;;;1.55;43.05;100280.13;5056499;28;20216;-59
2022/01/26 08:17:48;;;;;;;15.60;9.70;;;;;;;1.53;43.12;100272.44;5055861;28;20287;-59
2022/01/26 08:20:15;;;;;;;17.60;9.60;;;;;;;1.66;42.97;100280.03;5052493;28;20210;-59
2022/01/26 08:22:42;;;;;;;15.53;9.57;;;;;;;1.57;43.79;100279.44;5049906;28;20266;-60
2022/01/26 08:25:11;;;;;;;14.27;10.37;;;;;;;1.65;44.13;100277.38;5050280;28;20259;-59
2022/01/26 08:27:42;;;;;;;13.63;9.73;;;;;;;1.64;43.98;100279.06;5050205;28;20192;-59
2022/01/26 08:30:14;;;;;;;17.33;10.03;;;;;;;1.58;44.38;100282.84;5050251;28;20192;-58
2022/01/26 08:32:41;;;;;;;15.53;9.73;;;;;;;1.60;43.86;100276.22;5050156;28;20196;-58
2022/01/26 08:35:08;;;;;;;19.87;9.20;;;;;;;1.70;44.36;100276.03;5049794;28;20216;-59
2022/01/26 08:37:35;;;;;;;13.70;8.80;;;;;;;1.77;44.22;100281.59;5056575;28;20199;-58
2022/01/26 08:40:03;;;;;;;13.97;8.80;;;;;;;1.81;44.40;100277.59;5064627;28;20191;-59
2022/01/26 08:42:31;;;;;;;15.93;9.73;;;;;;;1.90;44.06;100282.34;5068974;28;20184;-59
2022/01/26 08:44:58;;;;;;;19.83;10.40;;;;;;;1.88;43.72;100279.72;5069007;28;20325;-59
2022/01/26 08:47:25;;;;;;;17.57;10.43;;;;;;;1.93;44.12;100282.53;5069392;28;20283;-59
2022/01/26 08:49:52;;;;;;;18.87;10.00;;;;;;;1.95;43.89;100274.25;5069876;28;20195;-59
2022/01/26 08:52:19;;;;;;;23.73;11.23;;;;;;;2.03;43.91;100277.28;5069569;28;20191;-59
2022/01/26 08:54:46;;;;;;;24.53;10.67;;;;;;;2.02;44.43;100278.94;5067774;28;20215;-60
2022/01/26 08:57:13;;;;;;;12.50;9.13;;;;;;;2.06;44.50;100277.47;5064658;28;20278;-60
2022/01/26 08:59:41;;;;;;;17.33;10.60;;;;;;;2.13;44.05;100277.06;5069327;28;20205;-60
2022/01/26 09:02:08;;;;;;;15.57;10.10;;;;;;;2.26;43.96;100272.81;5067037;28;20629;-60
2022/01/26 09:04:35;;;;;;;16.33;10.43;;;;;;;2.13;43.55;100267.78;5075425;28;20190;-59
2022/01/26 09:07:04;;;;;;;13.50;9.63;;;;;;;2.29;43.78;100285.69;5067012;28;20202;-60
2022/01/26 09:09:40;;;;;;;17.50;11.10;;;;;;;2.34;43.60;100278.34;5065938;28;20612;-59
2022/01/26 09:12:09;;;;;;;16.03;10.63;;;;;;;2.41;43.45;100277.97;5068313;28;20233;-58
2022/01/26 09:14:36;;;;;;;15.93;10.77;;;;;;;2.45;43.38;100279.88;5065482;28;20291;-60
2022/01/26 09:17:06;;;;;;;13.73;10.03;;;;;;;2.40;43.54;100276.19;5069021;28;20213;-59
2022/01/26 09:19:33;;;;;;;17.40;10.37;;;;;;;2.39;43.53;100274.44;5069365;28;20231;-58
2022/01/26 09:22:03;;;;;;;20.63;10.03;;;;;;;2.50;43.24;100275.97;5069212;28;20783;-59
2022/01/26 09:24:31;;;;;;;16.47;10.67;;;;;;;2.48;43.76;100272.47;5069361;28;20697;-59
2022/01/26 09:26:59;;;;;;;13.30;9.03;;;;;;;2.55;43.28;100261.94;5069530;28;20274;-61
2022/01/26 09:29:26;;;;;;;14.90;9.97;;;;;;;2.50;43.83;100267.50;5069232;28;20225;-59
2022/01/26 09:31:54;;;;;;;13.80;9.63;;;;;;;2.53;43.44;100260.09;5069465;28;20203;-59
2022/01/26 09:34:24;;;;;;;15.27;9.70;;;;;;;2.54;43.87;100262.69;5068441;28;20216;-58
2022/01/26 09:36:51;;;;;;;20.50;10.33;;;;;;;2.49;43.71;100269.16;5069244;28;20203;-59
2022/01/26 09:39:20;;;;;;;17.20;9.77;;;;;;;2.52;44.43;100243.09;5069555;28;20199;-58
2022/01/26 09:41:49;;;;;;;17.40;10.40;;;;;;;2.54;44.29;100247.47;5069509;28;20581;-59
2022/01/26 09:44:17;;;;;;;16.20;10.00;;;;;;;2.66;44.72;100252.41;5069026;28;20195;-59
2022/01/26 09:46:45;;;;;;;17.70;10.07;;;;;;;2.69;44.50;100245.84;5069520;28;20280;-59
2022/01/26 09:49:15;;;;;;;13.40;10.43;;;;;;;2.79;44.74;100254.88;5068376;28;20662;-59
2022/01/26 09:51:48;;;;;;;15.83;9.97;;;;;;;2.94;44.60;100254.09;5069443;28;20214;-59
2022/01/26 09:54:17;;;;;;;16.00;9.97;;;;;;;2.95;45.00;100242.28;5069879;28;20724;-59
2022/01/26 09:56:46;;;;;;;19.10;11.07;;;;;;;3.02;44.72;100243.53;5072569;28;20195;-59
2022/01/26 09:59:13;;;;;;;14.37;9.50;;;;;;;3.08;44.87;100239.66;5068685;28;20234;-59
2022/01/26 10:01:42;;;;;;;15.93;10.73;;;;;;;3.15;44.97;100236.72;5052770;28;20199;-59
2022/01/26 10:04:19;;;;;;;18.80;10.47;;;;;;;3.28;44.56;100238.28;5052883;28;20191;-60
2022/01/26 10:06:59;;;;;;;17.33;12.32;;;;;;;3.32;44.60;100228.38;5051406;28;20933;-59
2022/01/26 10:17:40;;;;;;;13.57;10.30;;;;;;;3.61;44.18;100222.38;5052644;28;20267;-59
2022/01/26 10:20:09;;;;;;;13.43;9.93;;;;;;;3.65;44.24;100223.44;5052478;28;20199;-60
2022/01/26 10:22:38;;;;;;;15.73;10.90;;;;;;;3.59;45.03;100211.25;5058582;28;20219;-59
2022/01/26 10:25:13;;;;;;;15.33;9.90;;;;;;;3.45;45.39;100217.25;5058808;28;20218;-58
2022/01/26 10:27:42;;;;;;;16.53;10.63;;;;;;;3.51;45.64;100210.84;5067919;28;20245;-59
2022/01/26 10:30:12;;;;;;;13.73;10.07;;;;;;;3.60;45.45;100215.53;5069512;28;20491;-59
2022/01/26 10:32:40;;;;;;;17.63;10.03;;;;;;;3.67;45.60;100209.13;5072313;28;20192;-58
2022/01/26 10:35:09;;;;;;;18.80;11.67;;;;;;;3.68;45.10;100208.34;5072240;28;20242;-59
2022/01/26 10:37:39;;;;;;;19.27;12.60;;;;;;;3.82;45.59;100198.13;5072203;28;20629;-58
2022/01/26 10:40:14;;;;;;;14.50;9.57;;;;;;;3.79;45.49;100195.41;5072382;28;20230;-59
2022/01/26 10:42:41;;;;;;;15.17;11.10;;;;;;;3.81;45.39;100183.69;5072067;28;20191;-59
2022/01/26 10:45:13;;;;;;;17.67;11.07;;;;;;;3.90;45.56;100201.94;5071676;28;20176;-58
2022/01/26 10:47:45;;;;;;;14.70;10.57;;;;;;;3.87;45.40;100185.69;5071251;28;20199;-60
2022/01/26 10:50:46;;;;;;;16.20;12.00;;;;;;;3.86;45.73;100184.78;5071521;28;20237;-59
2022/01/26 10:53:16;;;;;;;18.03;10.70;;;;;;;3.89;46.15;100172.25;5071977;28;20622;-59
2022/01/26 10:55:45;;;;;;;20.00;12.27;;;;;;;4.04;45.77;100198.47;5071982;28;20206;-59
2022/01/26 10:58:16;;;;;;;15.23;11.17;;;;;;;4.07;45.20;100182.50;5071812;28;20646;-59
2022/01/26 11:00:44;;;;;;;16.70;11.40;;;;;;;4.07;45.44;100183.38;5071664;28;20237;-59
2022/01/26 11:03:11;;;;;;;14.07;11.40;;;;;;;4.09;46.05;100180.94;5071832;28;20203;-59
2022/01/26 11:05:38;;;;;;;17.67;12.83;;;;;;;4.18;45.96;100177.19;5066616;28;20188;-59
2022/01/26 11:08:09;;;;;;;16.47;12.07;;;;;;;4.21;46.17;100165.41;5056837;28;20215;-60
2022/01/26 11:10:39;;;;;;;15.73;11.73;;;;;;;4.16;46.08;100167.75;5051607;28;20615;-59
2022/01/26 11:13:07;;;;;;;20.43;12.50;;;;;;;4.04;46.48;100164.53;5051444;28;20207;-58
2022/01/26 11:15:35;;;;;;;23.70;13.30;;;;;;;4.18;46.67;100161.94;5051023;28;20207;-59
2022/01/26 11:18:07;;;;;;;20.90;13.50;;;;;;;4.27;46.18;100159.00;5051472;28;20196;-59
2022/01/26 11:20:48;;;;;;;18.73;12.27;;;;;;;4.36;46.29;100161.13;5068182;28;20657;-59
2022/01/26 11:23:15;;;;;;;22.40;14.37;;;;;;;4.27;46.70;100150.47;5071156;28;20352;-59
2022/01/26 11:25:44;;;;;;;18.97;12.27;;;;;;;4.38;46.85;100159.53;5071312;28;20202;-59
2022/01/26 11:28:23;;;;;;;18.63;12.47;;;;;;;4.35;47.03;100145.00;5071284;28;20688;-59
2022/01/26 11:30:51;;;;;;;17.50;12.00;;;;;;;4.51;46.58;100154.28;5071104;28;20271;-59
2022/01/26 11:33:20;;;;;;;21.27;13.07;;;;;;;4.47;47.31;100149.84;5071218;28;20194;-59
2022/01/26 11:35:50;;;;;;;26.20;13.77;;;;;;;4.46;46.87;100138.78;5070045;28;20785;-59
2022/01/26 11:38:51;;;;;;;25.73;13.83;;;;;;;4.46;46.98;100133.69;5070926;28;20265;-58
2022/01/26 11:46:56;;;;;;;22.30;13.80;;;;;;;4.42;47.70;100130.94;5070419;28;20198;-59
2022/01/26 11:49:26;;;;;;;21.63;13.77;;;;;;;4.55;46.89;100146.88;5069310;28;20233;-59
2022/01/26 11:51:55;;;;;;;22.73;13.07;;;;;;;4.67;46.95;100134.75;5050503;28;20651;-59
2022/01/26 11:54:24;;;;;;;18.80;13.30;;;;;;;4.90;47.05;100128.25;5062862;28;20196;-59
2022/01/26 11:57:07;;;;;;;19.13;12.43;;;;;;;5.07;46.17;100127.41;5052818;28;20231;-59
2022/01/26 11:59:41;;;;;;;19.60;14.10;;;;;;;5.12;46.95;100130.16;5050521;28;20188;-58
2022/01/26 12:02:24;;;;;;;19.23;13.73;;;;;;;5.26;46.89;100119.81;5050661;28;20196;-59
2022/01/26 12:04:59;;;;;;;22.07;13.23;;;;;;;5.36;46.51;100116.03;5055200;28;20189;-58
2022/01/26 12:07:26;;;;;;;18.20;13.20;;;;;;;5.46;47.16;100124.97;5065090;28;20221;-59
2022/01/26 12:09:55;;;;;;;18.65;14.55;;;;;;;5.42;48.04;100121.41;5049475;28;20479;-59
2022/01/26 12:12:24;;;;;;;13.83;9.50;;;;;;;5.55;48.80;100122.88;5050344;28;20192;-59
2022/01/26 12:15:05;;;;;;;16.80;11.60;;;;;;;5.62;48.23;100112.13;5050657;28;20354;-59
2022/01/26 12:17:37;;;;;;;13.37;10.47;;;;;;;5.48;48.23;100105.53;5049405;28;20194;-59
2022/01/26 12:34:35;;;;;;;16.93;12.43;;;;;;;5.90;48.27;100104.97;5068665;28;20199;-56
2022/01/26 12:37:11;;;;;;;16.10;11.27;;;;;;;5.89;47.53;100098.97;5066586;28;20176;-56
2022/01/26 12:42:57;;;;;;;23.47;13.47;;;;;;;5.97;47.45;100095.88;5067021;28;20199;-55
2022/01/26 12:45:26;;;;;;;20.83;13.60;;;;;;;5.91;46.99;100112.66;5066736;28;20199;-55
2022/01/26 12:47:57;;;;;;;24.80;14.33;;;;;;;5.81;46.66;100110.47;5067890;28;20219;-55
2022/01/26 12:50:25;;;;;;;19.47;13.40;;;;;;;5.40;46.82;100028.75;5069394;28;20200;-55
2022/01/26 12:52:54;;;;;;;19.40;13.70;;;;;;;5.79;47.29;100109.56;5068833;28;20274;-56
2022/01/26 12:55:22;;;;;;;18.13;13.23;;;;;;;5.81;47.22;100101.97;5068788;28;20215;-55
2022/01/26 12:57:49;;;;;;;17.60;12.97;;;;;;;5.89;47.28;100100.66;5068565;28;20278;-56
2022/01/26 13:00:18;;;;;;;19.97;12.93;;;;;;;5.85;47.63;100096.25;5063337;28;20282;-55
2022/01/26 13:02:45;;;;;;;17.33;13.23;;;;;;;5.87;48.11;100099.72;5066502;28;20259;-56
2022/01/26 13:05:15;;;;;;;21.17;13.27;;;;;;;5.74;47.56;100099.94;5068879;28;20270;-56
2022/01/26 13:07:42;;;;;;;18.17;13.63;;;;;;;5.75;48.04;100099.13;5068847;28;20285;-56
2022/01/26 13:10:17;;;;;;;17.93;13.53;;;;;;;5.82;47.72;100106.25;5067667;28;20206;-54
2022/01/26 13:12:44;;;;;;;22.27;13.20;;;;;;;5.83;47.57;100102.88;5063401;28;20206;-56